Time;durP1;ratioP1;P1;durP2;ratioP2;P2;SDS_P1;SDS_P2;PMS_P1;PMS_P2;Temp;Humidity;BMP_temperature;BMP_pressure;BME280_temperature;BME280_humidity;BME280_pressure;Samples;Min_cycle;Max_cycle;Signal;HPM_P1;HPM_P2
2023/08/12 00:00:58;;;;;;;2.45;2.35;;;;;;;;;;5031230;28;20231;-61
2023/08/12 00:03:24;;;;;;;3.15;2.70;;;;;;;;;;5030645;28;20281;-61
2023/08/12 00:05:51;;;;;;;2.65;2.55;;;;;;;;;;5031476;28;20200;-62
2023/08/12 00:08:17;;;;;;;3.42;3.13;;;;;;;;;;5030798;28;20448;-62
2023/08/12 00:10:43;;;;;;;2.75;2.55;;;;;;;;;;5031378;28;20244;-61
2023/08/12 00:13:14;;;;;;;2.83;2.72;;;;;;;;;;5030560;28;20214;-62
2023/08/12 00:15:41;;;;;;;2.58;2.38;;;;;;;;;;5031054;28;20549;-61
2023/08/12 00:18:08;;;;;;;3.20;2.90;;;;;;;;;;5030573;28;20257;-62
2023/08/12 00:20:35;;;;;;;2.75;2.53;;;;;;;;;;5030984;28;20677;-61
2023/08/12 00:23:02;;;;;;;3.63;3.03;;;;;;;;;;5030441;28;20199;-62
2023/08/12 00:25:28;;;;;;;2.47;2.30;;;;;;;;;;5030996;28;20229;-62
2023/08/12 00:27:54;;;;;;;2.60;2.40;;;;;;;;;;5030417;28;20680;-61
2023/08/12 00:30:22;;;;;;;3.35;2.80;;;;;;;;;;5031308;28;20235;-61
2023/08/12 00:32:49;;;;;;;5.35;2.67;;;;;;;;;;5030442;28;20748;-62
2023/08/12 00:35:15;;;;;;;5.88;2.80;;;;;;;;;;5030456;28;20668;-62
2023/08/12 00:37:41;;;;;;;3.45;3.15;;;;;;;;;;5030067;28;20239;-62
2023/08/12 00:40:09;;;;;;;4.18;2.45;;;;;;;;;;5030865;28;20239;-62
2023/08/12 00:42:35;;;;;;;6.97;2.55;;;;;;;;;;5029999;28;20204;-62
2023/08/12 00:45:02;;;;;;;3.08;2.88;;;;;;;;;;5030847;28;20199;-62
2023/08/12 00:47:30;;;;;;;3.30;3.03;;;;;;;;;;5029902;28;20204;-62
2023/08/12 00:49:58;;;;;;;2.80;2.67;;;;;;;;;;5030686;28;20749;-62
2023/08/12 00:52:25;;;;;;;3.22;2.95;;;;;;;;;;5029984;28;20700;-62
2023/08/12 00:54:51;;;;;;;2.80;2.70;;;;;;;;;;5030552;28;20329;-62
2023/08/12 00:57:18;;;;;;;2.40;2.30;;;;;;;;;;5029691;28;20200;-62
2023/08/12 00:59:45;;;;;;;2.88;2.65;;;;;;;;;;5030802;28;20641;-63
2023/08/12 01:02:11;;;;;;;2.80;2.55;;;;;;;;;;5030105;28;20250;-63
2023/08/12 01:04:40;;;;;;;2.88;2.67;;;;;;;;;;5030252;28;20287;-62
2023/08/12 01:07:06;;;;;;;5.53;2.85;;;;;;;;;;5029713;28;20242;-62
2023/08/12 01:09:33;;;;;;;3.20;2.80;;;;;;;;;;5030521;28;20207;-63
2023/08/12 01:12:03;;;;;;;3.05;2.85;;;;;;;;;;5030209;28;20305;-62
2023/08/12 01:14:33;;;;;;;7.90;2.85;;;;;;;;;;5030129;28;20608;-62
2023/08/12 01:17:03;;;;;;;2.80;2.45;;;;;;;;;;5019407;28;20262;-63
2023/08/12 01:19:31;;;;;;;3.17;2.95;;;;;;;;;;5029902;28;20242;-62
2023/08/12 01:22:00;;;;;;;3.63;3.30;;;;;;;;;;5030081;28;20286;-62
2023/08/12 01:24:28;;;;;;;2.90;2.70;;;;;;;;;;5029693;28;20333;-62
2023/08/12 01:26:55;;;;;;;4.57;2.72;;;;;;;;;;5029998;28;20644;-62
2023/08/12 01:29:21;;;;;;;3.00;2.80;;;;;;;;;;5030167;28;20268;-62
2023/08/12 01:31:50;;;;;;;3.45;2.53;;;;;;;;;;5030449;28;20589;-63
2023/08/12 01:34:21;;;;;;;2.58;2.47;;;;;;;;;;5029607;28;20251;-62
2023/08/12 01:36:51;;;;;;;2.60;2.50;;;;;;;;;;5029926;28;20262;-63
2023/08/12 01:39:19;;;;;;;2.20;2.10;;;;;;;;;;5028867;28;20278;-62
2023/08/12 01:41:47;;;;;;;3.25;2.75;;;;;;;;;;5028825;28;20262;-63
2023/08/12 01:44:13;;;;;;;2.63;2.53;;;;;;;;;;5029526;28;20208;-62
2023/08/12 01:46:40;;;;;;;2.72;2.53;;;;;;;;;;5029576;28;20204;-63
2023/08/12 01:49:06;;;;;;;2.80;2.60;;;;;;;;;;5030022;28;20204;-63
2023/08/12 01:51:33;;;;;;;3.13;2.83;;;;;;;;;;5029398;28;20200;-63
2023/08/12 01:53:59;;;;;;;2.60;2.50;;;;;;;;;;5032433;28;20651;-63
2023/08/12 01:56:25;;;;;;;2.85;2.60;;;;;;;;;;5032933;28;20235;-63
2023/08/12 01:58:53;;;;;;;3.63;2.20;;;;;;;;;;5040774;28;20268;-62
2023/08/12 02:01:20;;;;;;;5.80;2.38;;;;;;;;;;5037782;28;20677;-63
2023/08/12 02:03:46;;;;;;;3.45;3.00;;;;;;;;;;5033051;28;20716;-63
2023/08/12 02:06:13;;;;;;;3.03;2.83;;;;;;;;;;5033220;28;20243;-62
2023/08/12 02:08:39;;;;;;;3.55;3.25;;;;;;;;;;5033361;28;20231;-63
2023/08/12 02:11:05;;;;;;;3.10;2.90;;;;;;;;;;5032905;28;20236;-63
2023/08/12 02:13:32;;;;;;;2.63;2.53;;;;;;;;;;5032714;28;20681;-62
2023/08/12 02:16:00;;;;;;;2.90;2.63;;;;;;;;;;5033167;28;20787;-63
2023/08/12 02:18:26;;;;;;;2.90;2.70;;;;;;;;;;5032405;28;20708;-63
2023/08/12 02:20:52;;;;;;;5.00;2.72;;;;;;;;;;5033252;28;20293;-63
2023/08/12 02:23:19;;;;;;;3.05;2.85;;;;;;;;;;5032570;28;20199;-62
2023/08/12 02:25:45;;;;;;;2.90;2.80;;;;;;;;;;5033424;28;20266;-63
2023/08/12 02:28:12;;;;;;;3.03;2.83;;;;;;;;;;5032741;28;20200;-63
2023/08/12 02:30:38;;;;;;;4.38;3.13;;;;;;;;;;5033271;28;20297;-63
2023/08/12 02:33:06;;;;;;;3.10;2.90;;;;;;;;;;5032456;28;20210;-63
2023/08/12 02:35:33;;;;;;;7.03;2.72;;;;;;;;;;5032601;28;20771;-63
2023/08/12 02:37:59;;;;;;;2.78;2.67;;;;;;;;;;5032684;28;20282;-62
2023/08/12 02:40:26;;;;;;;2.70;2.50;;;;;;;;;;5032947;28;20207;-62
2023/08/12 02:42:52;;;;;;;2.20;2.10;;;;;;;;;;5032116;28;20200;-63
2023/08/12 02:45:19;;;;;;;4.22;3.10;;;;;;;;;;5032947;28;20223;-63
2023/08/12 02:47:45;;;;;;;2.60;2.45;;;;;;;;;;5032155;28;20648;-63
2023/08/12 02:50:13;;;;;;;3.72;3.42;;;;;;;;;;5033133;28;20246;-62
2023/08/12 02:52:39;;;;;;;3.22;3.03;;;;;;;;;;5032341;28;20262;-62
2023/08/12 02:55:06;;;;;;;3.15;2.90;;;;;;;;;;5032685;28;20277;-62
2023/08/12 02:57:32;;;;;;;3.20;2.42;;;;;;;;;;5032347;28;20208;-62
2023/08/12 02:59:59;;;;;;;5.70;3.25;;;;;;;;;;5032387;28;20203;-62
2023/08/12 03:02:25;;;;;;;4.57;3.22;;;;;;;;;;5032157;28;20706;-62
2023/08/12 03:04:54;;;;;;;5.28;2.97;;;;;;;;;;5031279;28;20278;-63
2023/08/12 03:07:21;;;;;;;6.20;3.28;;;;;;;;;;5032305;28;20199;-63
2023/08/12 03:09:48;;;;;;;4.20;3.80;;;;;;;;;;5032647;28;20288;-63
2023/08/12 03:12:14;;;;;;;3.03;2.83;;;;;;;;;;5032112;28;20207;-63
2023/08/12 03:14:41;;;;;;;3.83;2.55;;;;;;;;;;5032024;28;20227;-63
2023/08/12 03:17:07;;;;;;;4.78;2.85;;;;;;;;;;5032119;28;20204;-63
2023/08/12 03:19:34;;;;;;;3.22;2.63;;;;;;;;;;5032119;28;20222;-62
2023/08/12 03:22:00;;;;;;;2.90;2.80;;;;;;;;;;5031836;28;21068;-62
2023/08/12 03:24:28;;;;;;;2.90;2.70;;;;;;;;;;5031839;28;20200;-62
2023/08/12 03:26:54;;;;;;;3.00;2.80;;;;;;;;;;5031780;28;20207;-62
2023/08/12 03:29:21;;;;;;;3.40;3.20;;;;;;;;;;5031848;28;20239;-61
2023/08/12 03:31:47;;;;;;;3.50;3.22;;;;;;;;;;5033168;28;20199;-62
2023/08/12 03:34:14;;;;;;;6.50;3.05;;;;;;;;;;5034538;28;20277;-62
2023/08/12 03:36:40;;;;;;;3.60;3.40;;;;;;;;;;5031557;28;20646;-62
2023/08/12 03:39:07;;;;;;;3.65;3.38;;;;;;;;;;5032933;28;20632;-62
2023/08/12 03:41:35;;;;;;;4.07;3.58;;;;;;;;;;5031757;28;20200;-62
2023/08/12 03:44:01;;;;;;;3.88;3.45;;;;;;;;;;5031711;28;20682;-62
2023/08/12 03:46:28;;;;;;;3.22;2.92;;;;;;;;;;5031346;28;20199;-62
2023/08/12 03:48:54;;;;;;;9.07;4.00;;;;;;;;;;5031288;28;20681;-62
2023/08/12 03:51:21;;;;;;;3.97;3.67;;;;;;;;;;5031192;28;20257;-62
2023/08/12 03:53:47;;;;;;;5.80;3.67;;;;;;;;;;5031529;28;20310;-62
2023/08/12 03:56:16;;;;;;;5.18;3.83;;;;;;;;;;5031139;28;20220;-62
2023/08/12 03:58:44;;;;;;;7.05;4.53;;;;;;;;;;5032262;28;20200;-64
2023/08/12 04:01:11;;;;;;;7.47;3.28;;;;;;;;;;5032911;28;20615;-63
2023/08/12 04:03:37;;;;;;;6.10;3.60;;;;;;;;;;5031033;28;20281;-63
2023/08/12 04:06:04;;;;;;;5.38;3.70;;;;;;;;;;5031116;28;20191;-63
2023/08/12 04:08:32;;;;;;;5.53;3.67;;;;;;;;;;5031763;28;20593;-63
2023/08/12 04:10:58;;;;;;;5.03;3.35;;;;;;;;;;5031171;28;20223;-63
2023/08/12 04:13:25;;;;;;;3.90;3.55;;;;;;;;;;5030780;28;20231;-64
2023/08/12 04:15:53;;;;;;;4.65;4.30;;;;;;;;;;5030636;28;20341;-64
2023/08/12 04:18:19;;;;;;;4.18;3.83;;;;;;;;;;5030831;28;20672;-64
2023/08/12 04:20:46;;;;;;;4.30;3.55;;;;;;;;;;5031365;28;20264;-63
2023/08/12 04:23:13;;;;;;;4.57;3.40;;;;;;;;;;5030570;28;20267;-64
2023/08/12 04:25:39;;;;;;;3.30;2.65;;;;;;;;;;5030889;28;20239;-63
2023/08/12 04:28:06;;;;;;;4.22;3.92;;;;;;;;;;5030900;28;20208;-64
2023/08/12 04:30:32;;;;;;;3.45;2.97;;;;;;;;;;5019089;28;20207;-64
2023/08/12 04:33:00;;;;;;;3.25;2.83;;;;;;;;;;5030434;28;20204;-64
2023/08/12 04:35:27;;;;;;;3.88;3.40;;;;;;;;;;5030825;28;20314;-63
2023/08/12 04:37:53;;;;;;;3.80;2.95;;;;;;;;;;5030162;28;20211;-64
2023/08/12 04:40:20;;;;;;;3.72;2.88;;;;;;;;;;5031264;28;20223;-64
2023/08/12 04:42:46;;;;;;;4.85;2.85;;;;;;;;;;5029952;28;20208;-64
2023/08/12 04:45:13;;;;;;;4.93;2.67;;;;;;;;;;5030883;28;20232;-64
2023/08/12 04:47:39;;;;;;;4.43;2.75;;;;;;;;;;5029944;28;20724;-64
2023/08/12 04:50:08;;;;;;;6.10;3.13;;;;;;;;;;5030740;28;20250;-64
2023/08/12 04:52:34;;;;;;;7.50;2.80;;;;;;;;;;5030213;28;20677;-65
2023/08/12 04:55:01;;;;;;;6.25;3.45;;;;;;;;;;5030629;28;20647;-64
2023/08/12 04:57:27;;;;;;;9.35;2.80;;;;;;;;;;5030088;28;20674;-64
2023/08/12 04:59:54;;;;;;;2.90;2.70;;;;;;;;;;5030277;28;20204;-65
2023/08/12 05:02:20;;;;;;;2.85;2.58;;;;;;;;;;5029212;28;20759;-64
2023/08/12 05:04:48;;;;;;;4.38;3.00;;;;;;;;;;5030170;28;20753;-64
2023/08/12 05:07:16;;;;;;;3.60;3.30;;;;;;;;;;5029502;28;20739;-64
2023/08/12 05:09:43;;;;;;;3.88;3.10;;;;;;;;;;5030238;28;20747;-64
2023/08/12 05:12:10;;;;;;;3.65;3.20;;;;;;;;;;5029700;28;20839;-65
2023/08/12 05:14:36;;;;;;;4.03;3.45;;;;;;;;;;5029995;28;20253;-64
2023/08/12 05:17:03;;;;;;;3.80;3.60;;;;;;;;;;5030032;28;20322;-64
2023/08/12 05:19:30;;;;;;;3.35;3.05;;;;;;;;;;5030441;28;20206;-64
2023/08/12 05:21:57;;;;;;;3.47;3.20;;;;;;;;;;5030002;28;20338;-64
2023/08/12 05:24:25;;;;;;;6.53;3.00;;;;;;;;;;5030372;28;20203;-64
2023/08/12 05:26:51;;;;;;;6.47;3.70;;;;;;;;;;5030203;28;20227;-64
2023/08/12 05:29:17;;;;;;;3.38;3.13;;;;;;;;;;5033804;28;20293;-64
2023/08/12 05:31:44;;;;;;;3.40;3.10;;;;;;;;;;5033754;28;20709;-64
2023/08/12 05:34:10;;;;;;;3.85;3.42;;;;;;;;;;5034108;28;20677;-65
2023/08/12 05:36:37;;;;;;;4.45;3.17;;;;;;;;;;5033576;28;20277;-64
2023/08/12 05:39:04;;;;;;;5.53;3.30;;;;;;;;;;5033895;28;20682;-64
2023/08/12 05:41:31;;;;;;;4.15;3.85;;;;;;;;;;5033828;28;20237;-64
2023/08/12 05:43:58;;;;;;;9.85;3.55;;;;;;;;;;5033464;28;20208;-64
2023/08/12 05:46:24;;;;;;;4.85;3.08;;;;;;;;;;5033886;28;20669;-64
2023/08/12 05:48:51;;;;;;;2.58;2.38;;;;;;;;;;5033418;28;20621;-63
2023/08/12 05:51:17;;;;;;;3.72;3.15;;;;;;;;;;5033684;28;20234;-64
2023/08/12 05:53:44;;;;;;;6.55;3.15;;;;;;;;;;5033917;28;20227;-64
2023/08/12 05:56:10;;;;;;;4.50;2.95;;;;;;;;;;5033770;28;20232;-64
2023/08/12 05:58:38;;;;;;;5.00;2.70;;;;;;;;;;5033725;28;20227;-64
2023/08/12 06:01:04;;;;;;;6.80;3.00;;;;;;;;;;5033730;28;20265;-64
2023/08/12 06:03:31;;;;;;;3.65;2.42;;;;;;;;;;5033363;28;20207;-64
2023/08/12 06:05:57;;;;;;;7.22;2.60;;;;;;;;;;5033589;28;20227;-64
2023/08/12 06:08:24;;;;;;;2.17;2.08;;;;;;;;;;5033698;28;20212;-64
2023/08/12 06:10:50;;;;;;;2.53;2.42;;;;;;;;;;5033511;28;20199;-65
2023/08/12 06:13:16;;;;;;;2.88;2.67;;;;;;;;;;5045692;28;20261;-64
2023/08/12 06:15:44;;;;;;;3.08;2.30;;;;;;;;;;5033453;28;20227;-65
2023/08/12 06:18:11;;;;;;;3.63;2.67;;;;;;;;;;5033551;28;20207;-65
2023/08/12 06:20:37;;;;;;;4.90;2.97;;;;;;;;;;5032717;28;20200;-65
2023/08/12 06:23:04;;;;;;;3.40;2.42;;;;;;;;;;5033469;28;20207;-65
2023/08/12 06:25:30;;;;;;;6.32;2.60;;;;;;;;;;5032711;28;20238;-65
2023/08/12 06:27:58;;;;;;;2.60;2.40;;;;;;;;;;5032913;28;20703;-65
2023/08/12 06:30:25;;;;;;;2.90;2.70;;;;;;;;;;5033218;28;20287;-65
2023/08/12 06:32:52;;;;;;;2.67;2.40;;;;;;;;;;5032839;28;20238;-65
2023/08/12 06:35:19;;;;;;;3.40;2.75;;;;;;;;;;5019851;28;20685;-65
2023/08/12 06:37:45;;;;;;;2.42;2.22;;;;;;;;;;5032922;28;20297;-64
2023/08/12 06:40:12;;;;;;;2.53;2.42;;;;;;;;;;5032590;28;20212;-65
2023/08/12 06:42:38;;;;;;;4.57;2.10;;;;;;;;;;5032305;28;20685;-65
2023/08/12 06:45:05;;;;;;;6.78;2.67;;;;;;;;;;5033098;28;20642;-65
2023/08/12 06:47:32;;;;;;;2.75;2.65;;;;;;;;;;5032393;28;20206;-66
2023/08/12 06:49:59;;;;;;;2.65;2.50;;;;;;;;;;5032594;28;20203;-66
2023/08/12 06:52:26;;;;;;;2.67;2.42;;;;;;;;;;5032610;28;20223;-65
2023/08/12 06:54:52;;;;;;;4.88;2.38;;;;;;;;;;5033355;28;20234;-66
2023/08/12 06:57:19;;;;;;;2.72;2.53;;;;;;;;;;5032350;28;20324;-66
2023/08/12 06:59:46;;;;;;;3.00;2.80;;;;;;;;;;5032791;28;20235;-66
2023/08/12 07:02:12;;;;;;;2.97;2.78;;;;;;;;;;5044550;28;20252;-66
2023/08/12 07:04:39;;;;;;;5.88;2.88;;;;;;;;;;5032460;28;20251;-66
2023/08/12 07:07:06;;;;;;;5.10;2.85;;;;;;;;;;5031904;28;20253;-66
2023/08/12 07:09:33;;;;;;;5.47;3.33;;;;;;;;;;5032406;28;20226;-66
2023/08/12 07:12:00;;;;;;;5.15;3.22;;;;;;;47.90;nan;95628.31;5031821;28;20207;-66
2023/08/12 07:14:27;;;;;;;4.60;2.97;;;;;;;48.31;nan;95635.25;5032246;28;20257;-65
2023/08/12 07:16:54;;;;;;;3.08;2.80;;;;;;;48.44;nan;95633.03;5032133;28;20720;-64
2023/08/12 07:19:21;;;;;;;3.58;3.28;;;;;;;48.50;nan;95631.97;5032463;28;20203;-65
2023/08/12 07:21:47;;;;;;;4.35;2.70;;;;;;;48.54;nan;95628.44;5031954;28;20599;-65
2023/08/12 07:24:15;;;;;;;4.13;2.90;;;;;;;48.38;nan;95630.38;5032028;28;20775;-66
2023/08/12 07:26:42;;;;;;;5.00;2.50;;;;;;;;;;5031277;28;20257;-66
2023/08/12 07:29:09;;;;;;;3.15;2.85;;;;;;;48.36;nan;95637.13;5032463;28;20207;-66
2023/08/12 07:31:35;;;;;;;3.40;2.38;;;;;;;48.38;nan;95624.97;5031276;28;20218;-64
2023/08/12 07:34:02;;;;;;;2.90;2.70;;;;;;;48.52;nan;95632.47;5031851;28;20257;-65
2023/08/12 07:36:29;;;;;;;3.22;3.03;;;;;;;48.61;nan;95618.16;5031445;28;20254;-65
2023/08/12 07:38:55;;;;;;;3.63;2.72;;;;;;;48.74;nan;95622.16;5031735;28;20698;-65
2023/08/12 07:41:27;;;;;;;2.78;2.60;;;;;;;49.14;nan;95618.41;5031464;28;20260;-66
2023/08/12 07:43:53;;;;;;;2.25;2.15;;;;;;;49.14;nan;95609.50;5031570;28;20205;-65
2023/08/12 07:46:20;;;;;;;3.00;2.72;;;;;;;49.12;nan;95622.47;5031580;28;20199;-66
2023/08/12 07:48:47;;;;;;;2.53;2.42;;;;;;;49.42;nan;95611.47;5031496;28;20232;-65
2023/08/12 07:51:13;;;;;;;2.50;2.40;;;;;;;49.50;nan;95597.31;5030519;28;20316;-64
2023/08/12 07:53:40;;;;;;;4.63;2.60;;;;;;;49.49;nan;95603.84;5031287;28;20227;-65
2023/08/12 07:56:07;;;;;;;4.75;2.83;;;;;;;49.91;nan;95597.81;5031140;28;20297;-66
2023/08/12 07:58:35;;;;;;;2.55;2.35;;;;;;;49.74;nan;95596.63;5031689;28;20320;-65
2023/08/12 08:01:01;;;;;;;4.55;2.50;;;;;;;49.27;nan;95592.66;5031371;28;20210;-65
2023/08/12 08:03:28;;;;;;;2.85;2.50;;;;;;;49.22;nan;95595.44;5031195;28;20231;-63
2023/08/12 08:05:56;;;;;;;3.10;2.53;;;;;;;49.19;nan;95599.47;5031097;28;20466;-65
2023/08/12 08:08:23;;;;;;;2.53;2.30;;;;;;;49.28;nan;95599.69;5031296;28;20257;-65
2023/08/12 08:10:49;;;;;;;2.35;2.25;;;;;;;49.15;nan;95589.50;5030850;28;20213;-66
2023/08/12 08:13:16;;;;;;;4.07;2.30;;;;;;;49.21;nan;95588.41;5030881;28;20676;-65
2023/08/12 08:15:44;;;;;;;2.20;2.10;;;;;;;49.37;nan;95598.00;5030785;28;20681;-65
2023/08/12 08:18:11;;;;;;;2.53;2.42;;;;;;;49.82;nan;95599.47;5031280;28;20199;-65
2023/08/12 08:20:37;;;;;;;3.58;2.55;;;;;;;49.74;nan;95602.00;5030745;28;20843;-66
2023/08/12 08:23:04;;;;;;;2.55;2.45;;;;;;;49.70;nan;95594.47;5030691;28;20247;-66
2023/08/12 08:25:32;;;;;;;3.70;3.08;;;;;;;49.38;nan;95595.00;5030960;28;20272;-66
2023/08/12 08:27:58;;;;;;;2.90;2.30;;;;;;;49.78;nan;95586.81;5030881;28;20203;-65
2023/08/12 08:30:25;;;;;;;2.63;2.50;;;;;;;49.36;nan;95590.97;5030752;28;20649;-66
2023/08/12 08:32:53;;;;;;;2.58;2.47;;;;;;;49.46;nan;95580.09;5030488;28;20642;-66
2023/08/12 08:35:20;;;;;;;3.67;2.42;;;;;;;49.49;nan;95584.94;5030524;28;20198;-66
2023/08/12 08:37:47;;;;;;;2.38;2.15;;;;;;;49.72;nan;95583.38;5030621;28;20251;-66
2023/08/12 08:40:13;;;;;;;2.50;2.40;;;;;;;;;;5031947;28;20253;-66
2023/08/12 08:42:42;;;;;;;4.00;2.28;;;;;;;49.70;nan;95570.16;5030718;28;20289;-65
2023/08/12 08:45:13;;;;;;;3.95;2.78;;;;;;;49.51;nan;95566.50;5030544;28;20203;-65
2023/08/12 08:47:41;;;;;;;2.38;2.15;;;;;;;49.50;nan;95570.31;5030102;28;20210;-66
2023/08/12 08:50:10;;;;;;;2.80;2.30;;;;;;;50.46;nan;95571.22;5030811;28;20229;-66
2023/08/12 08:52:38;;;;;;;2.70;2.20;;;;;;;;;;5029536;28;20234;-65
2023/08/12 08:55:05;;;;;;;2.55;2.35;;;;;;;;;;5030597;28;20203;-65
2023/08/12 08:57:32;;;;;;;3.88;2.10;;;;;;;46.59;nan;95554.44;5030270;28;20313;-65
2023/08/12 08:59:59;;;;;;;2.25;2.15;;;;;;;46.61;nan;95568.44;5030945;28;20211;-65
2023/08/12 09:02:26;;;;;;;2.30;2.15;;;;;;;46.72;nan;95554.78;5029187;28;20234;-65
2023/08/12 09:04:53;;;;;;;2.38;2.28;;;;;;;46.36;nan;95545.78;5030751;28;20308;-65
2023/08/12 09:07:22;;;;;;;2.17;2.08;;;;;;;46.28;nan;95551.63;5030007;28;20208;-65
2023/08/12 09:09:53;;;;;;;2.20;2.10;;;;;;;46.37;nan;95535.84;5030905;28;20632;-65
2023/08/12 09:12:21;;;;;;;2.63;2.40;;;;;;;46.46;nan;95544.19;5029923;28;20239;-66
2023/08/12 09:14:48;;;;;;;2.50;2.20;;;;;;;45.56;nan;95540.78;5030300;28;20234;-65
2023/08/12 09:17:15;;;;;;;2.00;2.00;;;;;;;44.62;nan;95538.59;5030018;28;20255;-66
2023/08/12 09:19:42;;;;;;;2.75;2.50;;;;;;;43.84;nan;95534.41;5030347;28;20290;-65
2023/08/12 09:22:10;;;;;;;2.97;2.70;;;;;;;43.34;nan;95535.28;5029712;28;20739;-65
2023/08/12 09:24:38;;;;;;;1.98;1.90;;;;;;;42.89;nan;95538.03;5030261;28;20282;-65
2023/08/12 09:27:05;;;;;;;2.95;2.50;;;;;;;42.01;nan;95523.25;5030190;28;20286;-65
2023/08/12 09:29:33;;;;;;;2.80;2.60;;;;;;;40.69;nan;95534.25;5030124;28;20725;-65
2023/08/12 09:32:11;;;;;;;2.63;2.53;;;;;;;39.55;nan;95529.66;5030146;28;20238;-65
2023/08/12 09:34:38;;;;;;;2.45;2.35;;;;;;;38.78;nan;95525.56;5029768;28;20677;-65
2023/08/12 09:37:05;;;;;;;2.60;2.50;;;;;;;37.94;nan;95529.22;5030093;28;20250;-65
2023/08/12 09:39:32;;;;;;;2.50;2.40;;;;;;;37.10;nan;95516.69;5030186;28;20239;-64
2023/08/12 09:42:01;;;;;;;2.30;2.17;;;;;;;37.10;nan;95516.69;5018094;28;20254;-65
2023/08/12 09:44:27;;;;;;;2.67;2.40;;;;;;;35.13;nan;95522.78;5029556;28;20218;-65
2023/08/12 09:46:58;;;;;;;1.95;1.85;;;;;;;33.91;nan;95521.06;5029908;28;20231;-65
2023/08/12 09:49:25;;;;;;;3.03;2.83;;;;;;;;;;5029785;28;20286;-65
2023/08/12 09:51:52;;;;;;;2.35;2.13;;;;;;;;;;5029808;28;20720;-63
2023/08/12 09:54:19;;;;;;;2.85;2.65;;;;;;;;;;5029285;28;20685;-64
2023/08/12 09:56:47;;;;;;;2.28;2.08;;;;;;;;;;5030085;28;20223;-65
2023/08/12 09:59:17;;;;;;;2.20;2.10;;;;;;;;;;5029489;28;20681;-65
2023/08/12 10:01:45;;;;;;;2.72;2.22;;;;;;;;;;5039410;28;20207;-64
2023/08/12 10:04:15;;;;;;;2.97;2.20;;;;;;;;;;5031312;28;20232;-64
2023/08/12 10:06:42;;;;;;;2.10;1.90;;;;;;;;;;5029838;28;20625;-64
2023/08/12 10:09:11;;;;;;;2.28;2.17;;;;;;;;;;5029894;28;20200;-64
2023/08/12 10:11:37;;;;;;;2.47;2.38;;;;;;;;;;5029505;28;20757;-65
2023/08/12 10:14:04;;;;;;;2.08;1.60;;;;;;;;;;5030661;28;20290;-64
2023/08/12 10:16:32;;;;;;;2.40;2.17;;;;;;;;;;5033231;28;20208;-64
2023/08/12 10:18:59;;;;;;;2.20;2.00;;;;;;;;;;5032923;28;20235;-63
2023/08/12 10:21:26;;;;;;;1.83;1.73;;;;;;;;;;5033287;28;20211;-63
2023/08/12 10:23:54;;;;;;;2.33;2.20;;;;;;;;;;5032963;28;20261;-64
2023/08/12 10:26:21;;;;;;;2.15;2.05;;;;;;;;;;5034083;28;20207;-65
2023/08/12 10:28:49;;;;;;;2.33;2.22;;;;;;;;;;5032827;28;20203;-64
2023/08/12 10:31:16;;;;;;;2.88;2.10;;;;;;;;;;5033372;28;20257;-63
2023/08/12 10:33:44;;;;;;;2.45;2.25;;;;;;;;;;5032854;28;20281;-64
2023/08/12 10:36:10;;;;;;;2.83;2.05;;;;;;;;;;5032942;28;20273;-63
2023/08/12 10:38:37;;;;;;;2.10;2.00;;;;;;;;;;5032995;28;20223;-65
2023/08/12 10:41:19;;;;;;;2.25;2.03;;;;;;;;;;5032618;28;20289;-64
2023/08/12 10:43:55;;;;;;;2.08;1.98;;;;;;;;;;5033045;28;20207;-63
2023/08/12 10:46:22;;;;;;;3.97;3.10;;;;;;;;;;5032789;28;20196;-63
2023/08/12 10:48:58;;;;;;;2.15;2.05;;;;;;;;;;5032407;28;20199;-64
2023/08/12 10:51:40;;;;;;;2.20;2.10;;;;;;;;;;5032346;28;20200;-63
2023/08/12 10:54:16;;;;;;;2.28;2.08;;;;;;;;;;5032558;28;20289;-63
2023/08/12 10:57:08;;;;;;;3.97;2.22;;;;;;;;;;5032905;28;20211;-64
2023/08/12 10:59:53;;;;;;;3.15;2.10;;;;;;;;;;5026607;28;20681;-64
2023/08/12 11:02:20;;;;;;;3.28;2.10;;;;;;;;;;5032208;28;20293;-64
2023/08/12 11:04:50;;;;;;;1.90;1.65;;;;;;;;;;5032367;28;20620;-63
2023/08/12 11:07:18;;;;;;;2.10;1.98;;;;;;;;;;5032027;28;20597;-64
2023/08/12 11:09:45;;;;;;;2.03;1.92;;;;;;;;;;5032934;28;20214;-64
2023/08/12 11:12:11;;;;;;;1.85;1.75;;;;;;;;;;5032358;28;20206;-64
2023/08/12 11:14:48;;;;;;;2.05;1.70;;;;;;;;;;5032474;28;20198;-63
2023/08/12 11:17:15;;;;;;;1.60;1.50;;;;;;;;;;5031963;28;20219;-64
2023/08/12 11:19:41;;;;;;;1.55;1.45;;;;;;;;;;5032188;28;20744;-64
2023/08/12 11:22:12;;;;;;;2.63;2.42;;;;;;;;;;5032081;28;20196;-64
2023/08/12 11:24:41;;;;;;;2.40;2.20;;;;;;;27.90;nan;95462.78;5032055;28;20262;-62
2023/08/12 11:27:09;;;;;;;2.25;2.10;;;;;;;;;;5031041;28;20231;-65
2023/08/12 11:29:36;;;;;;;3.08;2.30;;;;;;;;;;5032006;28;20743;-64
2023/08/12 11:32:02;;;;;;;6.72;5.78;;;;;;;;;;5031909;28;20330;-63
2023/08/12 11:34:29;;;;;;;2.33;2.22;;;;;;;;;;5031560;28;20235;-65
2023/08/12 11:36:55;;;;;;;2.92;2.13;;;;;;;;;;5031985;28;20208;-64
2023/08/12 11:39:23;;;;;;;2.00;1.90;;;;;;;;;;5031734;28;20266;-64
2023/08/12 11:41:50;;;;;;;2.17;2.08;;;;;;;;;;5020063;28;20200;-64
2023/08/12 11:44:17;;;;;;;1.92;1.83;;;;;;;;;;5031580;28;20640;-64
2023/08/12 11:46:43;;;;;;;1.77;1.67;;;;;;;;;;5031402;28;20689;-66
2023/08/12 11:49:10;;;;;;;1.70;1.58;;;;;;;;;;5031046;28;20749;-64
2023/08/12 11:51:36;;;;;;;1.58;1.45;;;;;;;;;;5019275;28;20204;-64
2023/08/12 11:54:03;;;;;;;2.10;2.00;;;;;;;;;;5031240;28;20227;-64
2023/08/12 11:56:31;;;;;;;2.20;2.00;;;;;;;;;;5019299;28;20203;-65
2023/08/12 11:58:58;;;;;;;2.17;2.08;;;;;;;;;;5031245;28;20250;-63
2023/08/12 12:01:25;;;;;;;2.15;1.95;;;;;;;;;;5031385;28;20204;-64
2023/08/12 12:03:52;;;;;;;2.65;1.90;;;;;;;;;;5031255;28;20660;-64
2023/08/12 12:06:18;;;;;;;2.15;2.05;;;;;;;;;;5031704;28;20199;-64
2023/08/12 12:08:45;;;;;;;1.90;1.80;;;;;;;;;;5030724;28;20199;-64
2023/08/12 12:11:11;;;;;;;2.22;2.03;;;;;;;;;;5031689;28;20266;-64
2023/08/12 12:13:40;;;;;;;2.50;2.30;;;;;;;;;;5030828;28;20984;-63
2023/08/12 12:16:10;;;;;;;2.53;2.33;;;;;;;;;;5031206;28;20678;-64
2023/08/12 12:18:37;;;;;;;1.90;1.80;;;;;;;;;;5030666;28;20310;-64
2023/08/12 12:21:03;;;;;;;2.40;2.20;;;;;;;;;;5031423;28;20203;-64
2023/08/12 12:23:31;;;;;;;1.95;1.85;;;;;;;;;;5030641;28;20281;-64
2023/08/12 12:25:58;;;;;;;2.15;1.98;;;;;;;;;;5031134;28;20635;-64
2023/08/12 12:28:24;;;;;;;2.15;1.63;;;;;;;;;;5030815;28;20230;-63
2023/08/12 12:30:52;;;;;;;1.92;1.70;;;;;;;;;;5031010;28;20261;-64
2023/08/12 12:33:19;;;;;;;2.45;2.08;;;;;;;;;;5030424;28;20199;-63
2023/08/12 12:35:45;;;;;;;1.77;1.63;;;;;;;;;;5031097;28;20204;-64
2023/08/12 12:38:12;;;;;;;2.65;1.70;;;;;;;;;;5030232;28;20230;-64
2023/08/12 12:40:38;;;;;;;2.42;2.33;;;;;;;;;;5031132;28;20204;-64
2023/08/12 12:43:05;;;;;;;2.30;2.10;;;;;;;;;;5030184;28;20199;-64
2023/08/12 12:45:31;;;;;;;2.65;2.03;;;;;;;;;;5030833;28;20200;-64
2023/08/12 12:47:59;;;;;;;2.13;2.03;;;;;;;;;;5030227;28;20200;-64
2023/08/12 12:50:25;;;;;;;2.30;2.10;;;;;;;;;;5030645;28;20330;-63
2023/08/12 12:52:52;;;;;;;2.50;2.40;;;;;;;;;;5030506;28;20257;-64
2023/08/12 12:55:20;;;;;;;2.65;2.08;;;;;;;;;;5030373;28;20708;-64
2023/08/12 12:57:46;;;;;;;2.45;2.35;;;;;;;;;;5030321;28;20322;-64
2023/08/12 13:00:13;;;;;;;2.25;2.15;;;;;;;;;;5030658;28;20204;-64
2023/08/12 13:02:43;;;;;;;1.85;1.75;;;;;;;;;;5029904;28;20600;-64
2023/08/12 13:05:11;;;;;;;3.15;1.90;;;;;;;;;;5030101;28;20326;-64
2023/08/12 13:07:38;;;;;;;2.10;2.00;;;;;;;;;;5029986;28;20322;-64
2023/08/12 13:10:05;;;;;;;2.50;2.00;;;;;;;;;;5030650;28;20708;-65
2023/08/12 13:12:31;;;;;;;2.30;2.20;;;;;;;;;;5029780;28;20669;-64
2023/08/12 13:14:58;;;;;;;3.65;1.92;;;;;;;;;;5030292;28;20933;-63
2023/08/12 13:17:25;;;;;;;2.50;2.40;;;;;;;;;;5030271;28;20242;-63
2023/08/12 13:19:51;;;;;;;2.67;2.13;;;;;;;;;;5029909;28;20243;-63
2023/08/12 13:22:19;;;;;;;2.60;1.75;;;;;;;;;;5030281;28;20626;-64
2023/08/12 13:24:46;;;;;;;2.10;2.00;;;;;;;;;;5029667;28;20749;-64
2023/08/12 13:27:13;;;;;;;3.20;2.22;;;;;;;;;;5029812;28;20301;-63
2023/08/12 13:29:39;;;;;;;1.95;1.85;;;;;;;;;;5030565;28;20234;-63
2023/08/12 13:32:05;;;;;;;8.45;2.10;;;;;;;;;;5030617;28;20261;-64
2023/08/12 13:34:32;;;;;;;2.20;2.10;;;;;;;;;;5029947;28;20232;-63
2023/08/12 13:36:58;;;;;;;2.08;1.98;;;;;;;;;;5030114;28;20292;-63
2023/08/12 13:39:26;;;;;;;2.33;2.22;;;;;;;;;;5030380;28;20636;-64
2023/08/12 13:41:54;;;;;;;2.20;2.10;;;;;;;;;;5029866;28;20219;-63
2023/08/12 13:44:21;;;;;;;2.35;2.25;;;;;;;;;;5031297;28;20642;-64
2023/08/12 13:46:47;;;;;;;2.40;2.30;;;;;;;;;;5030004;28;20239;-63
2023/08/12 13:49:14;;;;;;;2.45;2.08;;;;;;;;;;5030961;28;20199;-63
2023/08/12 13:51:40;;;;;;;2.25;2.10;;;;;;;;;;5034248;28;20207;-64
2023/08/12 13:54:07;;;;;;;2.28;2.17;;;;;;;;;;5033481;28;20702;-64
2023/08/12 13:56:34;;;;;;;2.78;2.05;;;;;;;;;;5033815;28;20635;-63
2023/08/12 13:59:01;;;;;;;2.47;1.50;;;;;;;;;;5033660;28;20223;-64
2023/08/12 14:01:27;;;;;;;3.35;1.90;;;;;;;;;;5034008;28;20265;-64
2023/08/12 14:03:54;;;;;;;1.92;1.83;;;;;;;;;;5033285;28;20298;-64
2023/08/12 14:06:21;;;;;;;3.42;2.45;;;;;;;;;;5033771;28;20231;-64